Time;durP1;ratioP1;P1;durP2;ratioP2;P2;SDS_P1;SDS_P2;PMS_P1;PMS_P2;Temp;Humidity;BMP_temperature;BMP_pressure;BME280_temperature;BME280_humidity;BME280_pressure;Samples;Min_cycle;Max_cycle;Signal;HPM_P1;HPM_P2
2021/12/29 00:01:27;;;;;;;10.73;3.00;;;;;;;;;;4902467;29;20005;-83
2021/12/29 00:03:57;;;;;;;10.82;3.20;;;;;;;;;;5326722;23;20032;-85
2021/12/29 00:06:23;;;;;;;6.65;1.73;;;;;;;;;;4904926;29;20041;-83
2021/12/29 00:08:48;;;;;;;8.95;2.78;;;;;;;;;;4905765;29;20041;-82
2021/12/29 00:11:17;;;;;;;7.68;2.05;;;;;;;;;;5100972;23;20056;-85
2021/12/29 00:13:42;;;;;;;7.97;1.40;;;;;;;;;;4887897;29;20006;-86
2021/12/29 00:16:08;;;;;;;11.98;2.22;;;;;;;;;;4887332;29;20022;-85
2021/12/29 00:18:37;;;;;;;12.75;2.63;;;;;;;;;;4934272;23;20037;-84
2021/12/29 00:21:04;;;;;;;10.07;2.08;;;;;;;;;;4906665;29;20005;-84
2021/12/29 00:23:30;;;;;;;9.38;1.75;;;;;;;;;;4906212;29;20021;-82
2021/12/29 00:25:55;;;;;;;8.30;2.20;;;;;;;;;;4905557;29;20009;-83
2021/12/29 00:28:27;;;;;;;15.18;2.13;;;;;;;;;;4905431;29;20037;-83
2021/12/29 00:30:52;;;;;;;14.90;1.50;;;;;;;;;;4905598;29;20020;-82
2021/12/29 00:33:17;;;;;;;8.77;1.50;;;;;;;;;;4906142;29;20005;-81
2021/12/29 00:35:44;;;;;;;8.48;1.63;;;;;;;;;;4904562;29;20056;-84
2021/12/29 00:38:10;;;;;;;9.95;1.98;;;;;;;;;;4904921;29;20097;-84
2021/12/29 00:40:36;;;;;;;9.80;1.90;;;;;;;;;;4906215;29;20005;-84
2021/12/29 00:43:01;;;;;;;7.15;1.88;;;;;;;;;;4905948;29;20021;-83
2021/12/29 00:45:31;;;;;;;8.82;1.85;;;;;;;;;;4941263;23;20047;-82
2021/12/29 00:47:56;;;;;;;16.83;2.17;;;;;;;;;;4943356;28;20016;-82
2021/12/29 00:50:23;;;;;;;7.35;1.70;;;;;;;;;;4942578;28;20008;-85
2021/12/29 00:52:49;;;;;;;9.32;1.60;;;;;;;;;;4942094;28;20099;-84
2021/12/29 00:55:15;;;;;;;8.55;1.55;;;;;;;;;;4923801;29;20005;-87
2021/12/29 00:57:42;;;;;;;12.80;1.90;;;;;;;;;;4923195;29;20012;-85
2021/12/29 01:00:12;;;;;;;9.70;1.80;;;;;;;;;;4923706;29;20012;-86
2021/12/29 01:02:40;;;;;;;7.25;1.80;;;;;;;;;;5092961;23;20049;-84
2021/12/29 01:05:07;;;;;;;9.95;2.30;;;;;;;;;;4905255;29;20053;-82
2021/12/29 01:07:34;;;;;;;11.52;2.10;;;;;;;;;;4905369;29;20006;-83
2021/12/29 01:10:03;;;;;;;8.57;1.50;;;;;;;;;;4903803;29;20045;-85
2021/12/29 01:12:30;;;;;;;9.27;2.45;;;;;;;;;;4905616;29;20001;-84
2021/12/29 01:14:58;;;;;;;7.63;1.85;;;;;;;;;;4904919;29;20084;-84
2021/12/29 01:17:27;;;;;;;10.18;2.45;;;;;;;;;;4904713;29;20033;-84
2021/12/29 01:23:01;;;;;;;10.98;1.80;;;;;;;;;;4904763;29;20016;-84
2021/12/29 01:25:30;;;;;;;9.20;1.88;;;;;;;;;;4904771;29;20043;-81
2021/12/29 01:27:56;;;;;;;10.20;1.77;;;;;;;;;;4905051;29;20028;-82
2021/12/29 01:30:22;;;;;;;8.38;2.13;;;;;;;;;;4903907;29;20036;-83
2021/12/29 01:32:48;;;;;;;10.57;2.85;;;;;;;;;;4903097;29;20007;-82
2021/12/29 01:35:14;;;;;;;12.48;2.58;;;;;;;;;;4903569;29;20029;-82
2021/12/29 01:37:40;;;;;;;11.85;2.35;;;;;;;;;;4904548;29;20026;-83
2021/12/29 01:40:10;;;;;;;13.10;1.70;;;;;;;;;;4902120;29;20052;-84
2021/12/29 01:42:36;;;;;;;9.35;1.92;;;;;;;;;;4894454;29;20024;-81
2021/12/29 01:45:03;;;;;;;12.77;1.85;;;;;;;;;;4895898;29;20025;-80
2021/12/29 01:47:29;;;;;;;9.88;1.85;;;;;;;;;;4895750;29;20024;-81
2021/12/29 01:49:54;;;;;;;12.00;1.98;;;;;;;;;;4893562;29;20028;-81
2021/12/29 01:52:24;;;;;;;10.70;2.85;;;;;;;;;;4872997;29;20014;-82
2021/12/29 02:10:31;;;;;;;7.15;1.63;;;;;;;;;;5412789;23;20036;-83
2021/12/29 02:13:12;;;;;;;11.98;1.45;;;;;;;;;;4903529;29;20033;-84
2021/12/29 02:15:38;;;;;;;11.55;1.83;;;;;;;;;;4904373;29;20019;-82
2021/12/29 02:23:26;;;;;;;5.07;1.40;;;;;;;;;;5967960;23;20089;-81
2021/12/29 02:49:02;;;;;;;7.07;1.40;;;;;;;;;;5527686;23;20061;-83
2021/12/29 02:51:31;;;;;;;5.70;1.35;;;;;;;;;;5672422;23;20020;-83
2021/12/29 02:53:57;;;;;;;;;;;;;;;;;;4996920;23;20236;-86
2021/12/29 03:01:36;;;;;;;5.18;0.90;;;;;;;;;;5674337;23;20088;-82
2021/12/29 03:11:49;;;;;;;5.90;1.60;;;;;;;;;;5332716;23;20045;-84
2021/12/29 03:14:17;;;;;;;5.35;1.00;;;;;;;;;;4902623;29;20040;-84
2021/12/29 03:32:36;;;;;;;5.85;1.27;;;;;;;;;;4958379;23;20052;-83
2021/12/29 03:35:03;;;;;;;5.15;1.02;;;;;;;;;;4906542;29;20069;-82
2021/12/29 03:40:16;;;;;;;6.30;0.82;;;;;;;;;;4910275;23;20040;-83
2021/12/29 03:42:51;;;;;;;5.22;1.73;;;;;;;;;;4906357;29;20029;-82
2021/12/29 03:45:17;;;;;;;5.90;1.30;;;;;;;;;;4887903;29;20024;-82
2021/12/29 03:47:45;;;;;;;8.35;1.35;;;;;;;;;;4887851;29;20093;-82
2021/12/29 03:52:51;;;;;;;4.45;1.20;;;;;;;;;;5381614;23;20060;-84
2021/12/29 03:55:17;;;;;;;6.10;1.17;;;;;;;;;;5813063;23;20015;-83
2021/12/29 03:57:43;;;;;;;6.15;1.48;;;;;;;;;;4906420;29;20017;-83
2021/12/29 04:00:13;;;;;;;9.00;1.40;;;;;;;;;;4906002;29;20025;-83
2021/12/29 04:02:48;;;;;;;5.38;1.30;;;;;;;;;;5492268;23;20096;-82
2021/12/29 04:07:55;;;;;;;5.18;1.38;;;;;;;;;;5527374;23;20088;-83
2021/12/29 04:10:29;;;;;;;6.32;1.77;;;;;;;;;;4906240;29;20016;-83
2021/12/29 04:12:58;;;;;;;3.97;1.15;;;;;;;;;;4906096;29;20019;-82
2021/12/29 04:18:03;;;;;;;9.38;1.50;;;;;;;;;;5070092;23;20036;-83
2021/12/29 04:23:19;;;;;;;3.80;1.48;;;;;;;;;;4905938;29;20045;-82
2021/12/29 04:25:49;;;;;;;6.00;1.50;;;;;;;;;;4906022;29;20068;-82
2021/12/29 04:30:57;;;;;;;7.47;1.35;;;;;;;;;;5007062;23;20061;-83
2021/12/29 04:33:24;;;;;;;5.13;1.83;;;;;;;;;;4905425;29;20021;-84
2021/12/29 04:35:54;;;;;;;5.70;1.25;;;;;;;;;;4906230;29;20006;-83
2021/12/29 04:38:30;;;;;;;6.25;1.80;;;;;;;;;;4905399;29;20001;-83
2021/12/29 04:40:59;;;;;;;9.55;2.03;;;;;;;;;;4905883;29;20092;-83
2021/12/29 04:43:26;;;;;;;7.38;1.48;;;;;;;;;;5309588;23;21001;-82
2021/12/29 04:48:37;;;;;;;4.20;1.77;;;;;;;;;;4921577;23;20057;-81
2021/12/29 04:51:05;;;;;;;7.22;1.55;;;;;;;;;;4905920;29;20010;-83
2021/12/29 04:53:33;;;;;;;9.35;2.70;;;;;;;;;;4905151;29;20009;-83
2021/12/29 04:55:59;;;;;;;6.50;1.70;;;;;;;;;;4905558;29;20007;-83
2021/12/29 04:58:24;;;;;;;5.82;1.92;;;;;;;;;;4905746;29;20021;-83
2021/12/29 05:00:51;;;;;;;7.20;1.30;;;;;;;;;;4904935;29;20021;-82
2021/12/29 05:03:17;;;;;;;8.02;1.63;;;;;;;;;;4904860;29;20036;-83
2021/12/29 05:08:24;;;;;;;6.68;1.50;;;;;;;;;;4905499;29;20077;-82
2021/12/29 05:16:27;;;;;;;5.63;1.75;;;;;;;;;;5455496;23;20032;-83
2021/12/29 05:21:33;;;;;;;5.90;1.85;;;;;;;;;;5037980;23;20073;-83
2021/12/29 05:36:50;;;;;;;5.03;1.60;;;;;;;;;;4975480;23;20125;-82
2021/12/29 05:39:16;;;;;;;7.90;1.77;;;;;;;;;;4904254;29;20005;-84
2021/12/29 05:41:42;;;;;;;9.48;1.83;;;;;;;;;;4904804;29;20006;-83
2021/12/29 05:44:10;;;;;;;4.85;1.88;;;;;;;;;;4904179;29;20066;-84
2021/12/29 05:46:38;;;;;;;6.03;1.33;;;;;;;;;;4904033;29;20485;-82
2021/12/29 05:49:03;;;;;;;7.13;1.60;;;;;;;;;;4903831;29;20049;-82
2021/12/29 05:54:10;;;;;;;7.28;2.10;;;;;;;;;;5253340;23;20043;-82
2021/12/29 05:56:37;;;;;;;5.97;1.75;;;;;;;;;;4904458;29;20025;-83
2021/12/29 05:59:06;;;;;;;6.10;1.70;;;;;;;;;;4904016;29;20016;-84
2021/12/29 06:01:36;;;;;;;10.35;2.35;;;;;;;;;;4904469;29;20012;-83
2021/12/29 06:06:37;;;;;;;5.07;1.60;;;;;;;;;;5204208;23;20045;-83
2021/12/29 06:09:06;;;;;;;8.30;1.95;;;;;;;;;;4903429;29;20306;-83
2021/12/29 06:11:32;;;;;;;5.15;1.58;;;;;;;;;;4903987;29;20077;-83
2021/12/29 06:16:33;;;;;;;5.88;1.58;;;;;;;;;;5671798;23;20056;-83
2021/12/29 06:31:54;;;;;;;6.28;1.90;;;;;;;;;;5487820;23;20037;-81
2021/12/29 06:37:08;;;;;;;5.20;1.80;;;;;;;;;;5594320;23;20501;-82
2021/12/29 06:39:34;;;;;;;4.97;1.75;;;;;;;;;;4902035;29;20020;-82
2021/12/29 06:42:00;;;;;;;5.95;1.52;;;;;;;;;;4902379;29;20040;-82
2021/12/29 06:44:29;;;;;;;5.30;1.58;;;;;;;;;;4903748;29;20130;-83
2021/12/29 06:46:57;;;;;;;7.95;1.40;;;;;;;;;;4903185;29;20040;-83
2021/12/29 06:49:33;;;;;;;5.03;2.00;;;;;;;;;;4989600;23;20037;-83
2021/12/29 06:52:04;;;;;;;9.70;2.50;;;;;;;;;;4884871;29;20010;-81
2021/12/29 06:54:30;;;;;;;5.82;1.60;;;;;;;;;;4884464;29;20014;-82
2021/12/29 06:56:57;;;;;;;4.03;1.58;;;;;;;;;;4884520;29;20030;-83
2021/12/29 06:59:23;;;;;;;5.88;1.58;;;;;;;;;;4885145;29;20045;-83
2021/12/29 07:01:50;;;;;;;5.45;1.60;;;;;;;;;;5458299;23;20033;-83
2021/12/29 07:04:15;;;;;;;3.50;1.48;;;;;;;;;;4903603;29;20017;-83
2021/12/29 07:06:45;;;;;;;4.20;1.63;;;;;;;;;;4903693;29;20029;-83
2021/12/29 07:09:11;;;;;;;6.57;1.70;;;;;;;;;;4905594;29;20060;-84
2021/12/29 07:11:38;;;;;;;6.90;1.70;;;;;;;;;;4907503;29;20040;-83
2021/12/29 07:14:07;;;;;;;5.15;1.70;;;;;;;;;;4906953;29;20085;-82
2021/12/29 07:19:08;;;;;;;9.65;2.80;;;;;;;;;;5395457;23;19908;-83
2021/12/29 07:21:38;;;;;;;5.35;2.05;;;;;;;;;;5100211;23;20029;-84
2021/12/29 07:24:05;;;;;;;6.50;2.20;;;;;;;;;;4888034;29;20041;-82
2021/12/29 07:29:09;;;;;;;4.55;2.03;;;;;;;;;;5244379;23;20052;-83
2021/12/29 07:31:36;;;;;;;6.15;2.17;;;;;;;;;;4906844;29;20005;-83
2021/12/29 07:34:02;;;;;;;7.18;2.65;;;;;;;;;;4906528;29;20005;-83
2021/12/29 07:36:28;;;;;;;4.60;2.40;;;;;;;;;;4906585;29;20042;-82
2021/12/29 07:38:55;;;;;;;4.68;2.25;;;;;;;;;;4906334;29;20032;-84
2021/12/29 07:41:21;;;;;;;5.40;2.22;;;;;;;;;;4905541;29;20101;-83
2021/12/29 07:43:56;;;;;;;8.57;2.75;;;;;;;;;;4905776;29;20021;-83
2021/12/29 07:46:31;;;;;;;6.13;2.83;;;;;;;;;;4906139;29;20019;-83
2021/12/29 07:56:46;;;;;;;6.43;2.65;;;;;;;;;;5487193;23;20116;-82
2021/12/29 08:17:15;;;;;;;8.95;3.58;;;;;;;;;;5438189;23;20037;-82
2021/12/29 08:19:42;;;;;;;8.68;3.85;;;;;;;;;;4905958;29;20151;-83
2021/12/29 08:22:09;;;;;;;8.20;3.55;;;;;;;;;;4905697;29;20020;-84
2021/12/29 08:34:55;;;;;;;8.93;4.38;;;;;;;;;;5157544;23;20321;-82
2021/12/29 08:37:21;;;;;;;10.35;3.70;;;;;;;;;;4905374;29;20017;-83
2021/12/29 08:39:48;;;;;;;9.05;4.03;;;;;;;;;;5636038;23;20049;-83
2021/12/29 08:42:14;;;;;;;10.43;4.35;;;;;;;;;;4905651;29;20009;-84
2021/12/29 08:44:39;;;;;;;9.82;4.78;;;;;;;;;;4905075;29;20057;-83
2021/12/29 08:47:05;;;;;;;6.57;3.80;;;;;;;;;;4905708;29;20028;-83
2021/12/29 08:49:34;;;;;;;11.20;4.38;;;;;;;;;;4979506;23;21505;-82
2021/12/29 08:59:45;;;;;;;10.48;4.93;;;;;;;;;;4919943;23;20112;-84
2021/12/29 09:15:07;;;;;;;12.23;4.90;;;;;;;;;;5098392;23;20044;-83
2021/12/29 09:17:35;;;;;;;13.73;5.07;;;;;;;;;;4905084;29;20012;-82
2021/12/29 09:25:12;;;;;;;10.95;4.95;;;;;;;;;;5072341;23;20105;-84
2021/12/29 09:27:41;;;;;;;10.60;5.35;;;;;;;;;;4904053;29;20051;-82
2021/12/29 09:30:15;;;;;;;12.88;5.55;;;;;;;;;;4904472;29;20009;-82
2021/12/29 09:40:27;;;;;;;11.90;6.00;;;;;;;;;;5229312;23;20041;-83
2021/12/29 09:55:48;;;;;;;15.63;8.27;;;;;;;;;;5207210;23;20047;-83
2021/12/29 09:58:16;;;;;;;17.02;7.95;;;;;;;;;;4903911;29;20037;-83
2021/12/29 10:00:59;;;;;;;18.52;7.82;;;;;;;;;;4899541;29;20017;-84
2021/12/29 10:03:34;;;;;;;15.73;8.43;;;;;;;;;;4902961;29;20062;-83
2021/12/29 10:13:49;;;;;;;13.13;6.55;;;;;;;;;;5613844;23;20056;-84
2021/12/29 10:16:26;;;;;;;16.63;7.65;;;;;;;;;;4903839;29;20032;-83
2021/12/29 10:19:05;;;;;;;12.55;6.95;;;;;;;;;;4904566;29;20025;-82
2021/12/29 10:21:33;;;;;;;17.20;7.72;;;;;;;;;;5198168;23;20104;-83
2021/12/29 10:26:34;;;;;;;15.38;7.13;;;;;;;;;;4975206;23;20061;-81
2021/12/29 10:29:03;;;;;;;11.43;6.70;;;;;;;;;;4881567;29;20037;-80
2021/12/29 10:31:40;;;;;;;11.20;6.00;;;;;;;;;;4880913;29;20052;-79
2021/12/29 10:34:07;;;;;;;9.40;5.35;;;;;;;;;;4883303;29;20032;-80
2021/12/29 10:36:35;;;;;;;11.82;6.82;;;;;;;;;;4875275;29;20036;-80
2021/12/29 10:39:01;;;;;;;14.05;6.47;;;;;;;;;;4889247;29;20025;-80
2021/12/29 10:41:26;;;;;;;15.27;7.03;;;;;;;;;;4873831;29;20029;-81
2021/12/29 10:43:57;;;;;;;12.60;6.47;;;;;;;;;;4881037;29;20033;-79
2021/12/29 10:46:23;;;;;;;14.75;7.30;;;;;;;;;;4871675;29;20021;-81
2021/12/29 10:48:49;;;;;;;17.73;6.70;;;;;;;;;;4878768;29;20029;-83
2021/12/29 10:51:15;;;;;;;15.13;6.80;;;;;;;;;;4875107;29;20028;-81
2021/12/29 10:53:43;;;;;;;13.95;6.72;;;;;;;;;;4875664;29;20089;-81
2021/12/29 10:56:38;;;;;;;14.00;6.68;;;;;;;;;;4883424;29;20013;-83
2021/12/29 11:01:39;;;;;;;11.05;5.53;;;;;;;;;;5366098;23;20535;-84
2021/12/29 11:04:05;;;;;;;11.82;6.32;;;;;;;;;;4906306;29;20047;-86
2021/12/29 11:06:31;;;;;;;10.05;5.78;;;;;;;;;;4906290;29;20012;-88
2021/12/29 11:08:57;;;;;;;10.30;5.00;;;;;;;;;;4904912;29;20017;-89
2021/12/29 11:11:32;;;;;;;12.13;5.88;;;;;;;;;;4891070;29;20025;-90
2021/12/29 11:14:08;;;;;;;10.85;5.55;;;;;;;;;;4879713;29;20002;-90
2021/12/29 11:16:33;;;;;;;8.98;5.57;;;;;;;;;;4905026;29;20020;-89
2021/12/29 11:18:59;;;;;;;14.50;6.93;;;;;;;;;;4899151;29;20021;-87
2021/12/29 11:21:25;;;;;;;11.35;6.82;;;;;;;;;;4879067;29;20021;-88
2021/12/29 11:23:51;;;;;;;13.50;5.85;;;;;;;;;;4872458;29;20030;-85
2021/12/29 11:26:26;;;;;;;9.23;6.07;;;;;;;;;;4894958;29;20043;-84
2021/12/29 11:28:53;;;;;;;11.23;6.60;;;;;;;;;;4898285;29;20025;-83
2021/12/29 11:31:18;;;;;;;14.90;6.78;;;;;;;;;;4899910;29;20017;-83
2021/12/29 11:33:44;;;;;;;11.65;7.13;;;;;;;;;;4898524;29;20017;-81
2021/12/29 11:36:19;;;;;;;12.35;6.90;;;;;;;;;;4901851;29;20029;-83
2021/12/29 11:38:46;;;;;;;10.85;6.53;;;;;;;;;;4885994;29;20032;-82
2021/12/29 11:41:15;;;;;;;10.27;6.20;;;;;;;;;;4893887;29;20032;-84
2021/12/29 11:43:42;;;;;;;14.80;6.43;;;;;;;;;;4902633;29;20017;-84
2021/12/29 11:46:07;;;;;;;16.10;7.72;;;;;;;;;;4904977;29;20041;-83
2021/12/29 11:48:32;;;;;;;8.90;5.90;;;;;;;;;;4906226;29;20005;-86
2021/12/29 11:51:00;;;;;;;10.43;6.63;;;;;;;;;;4905913;29;20029;-89
2021/12/29 11:53:44;;;;;;;12.13;6.97;;;;;;;;;;4905135;29;20021;-84
2021/12/29 11:56:37;;;;;;;12.40;6.50;;;;;;;;;;4905265;29;20013;-84
2021/12/29 12:04:11;;;;;;;7.65;4.82;;;;;;;;;;5760921;23;20053;-83
2021/12/29 12:06:49;;;;;;;9.95;5.68;;;;;;;;;;4904891;29;20013;-84
2021/12/29 12:09:17;;;;;;;9.80;5.20;;;;;;;;;;4905526;29;20013;-83
2021/12/29 12:14:21;;;;;;;9.07;4.80;;;;;;;;;;5858646;23;20042;-83
2021/12/29 12:16:52;;;;;;;7.10;4.20;;;;;;;;;;4902198;29;20085;-83
2021/12/29 12:19:21;;;;;;;8.10;4.72;;;;;;;;;;4901256;29;20045;-83
2021/12/29 12:24:33;;;;;;;8.75;4.03;;;;;;;;;;5321209;23;20074;-86
2021/12/29 13:06:10;;;;;;;8.18;2.83;;;;;;;;;;5787251;23;20049;-85
2021/12/29 13:34:28;;;;;;;3.28;1.80;;;;;;;;;;5943829;23;21873;-83
2021/12/29 13:36:55;;;;;;;4.32;1.85;;;;;;;;;;4903221;29;20040;-83
2021/12/29 13:49:41;;;;;;;3.67;1.60;;;;;;;;;;5933584;23;20042;-85
2021/12/29 13:57:19;;;;;;;2.85;1.30;;;;;;;;;;5089373;23;20043;-83
2021/12/29 13:59:55;;;;;;;;;;;;;;;;;;;;;
2021/12/29 14:02:19;;;;;;;3.55;1.63;;;;;;;;;;4916472;29;20036;-80
2021/12/29 14:04:50;;;;;;;2.83;1.40;;;;;;;;;;4922117;29;20077;-82
2021/12/29 14:07:23;;;;;;;3.25;1.55;;;;;;;;;;4921641;29;20004;-82
2021/12/29 14:09:59;;;;;;;2.58;1.38;;;;;;;;;;4920540;29;20005;-83
2021/12/29 14:12:26;;;;;;;4.45;1.58;;;;;;;;;;4917622;29;20021;-83
2021/12/29 14:14:59;;;;;;;3.25;1.90;;;;;;;;;;4919226;29;20021;-82
2021/12/29 14:17:24;;;;;;;6.03;2.22;;;;;;;;;;4916577;29;20036;-82
2021/12/29 14:19:51;;;;;;;2.85;1.40;;;;;;;;;;4926222;29;20021;-81
2021/12/29 14:22:27;;;;;;;2.45;1.23;;;;;;;;;;4907941;29;20035;-81
2021/12/29 14:24:53;;;;;;;3.00;1.23;;;;;;;;;;4908892;29;20033;-82
2021/12/29 14:27:22;;;;;;;3.70;1.30;;;;;;;;;;4918741;29;20032;-82
2021/12/29 14:29:48;;;;;;;2.92;1.35;;;;;;;;;;4905853;29;20021;-84
2021/12/29 14:32:13;;;;;;;2.40;1.27;;;;;;;;;;4906672;29;20009;-83
2021/12/29 14:34:45;;;;;;;2.75;1.42;;;;;;;;;;4921171;29;20023;-83
2021/12/29 14:37:12;;;;;;;4.57;1.70;;;;;;;;;;4908771;29;20029;-82
2021/12/29 14:39:40;;;;;;;4.40;1.77;;;;;;;;;;4899235;29;20012;-83
2021/12/29 14:42:11;;;;;;;3.20;1.67;;;;;;;;;;4898894;29;20025;-82
2021/12/29 14:44:57;;;;;;;3.25;1.70;;;;;;;;;;4900357;29;20009;-82
2021/12/29 14:47:25;;;;;;;3.20;1.50;;;;;;;;;;4900243;29;20062;-83
2021/12/29 14:49:58;;;;;;;5.70;1.70;;;;;;;;;;4898178;29;20029;-82
2021/12/29 14:52:23;;;;;;;3.05;1.65;;;;;;;;;;4908353;29;20036;-83
2021/12/29 14:54:51;;;;;;;2.38;1.30;;;;;;;;;;4903667;29;20053;-84
2021/12/29 14:57:22;;;;;;;4.35;1.65;;;;;;;;;;4921360;29;20012;-85
2021/12/29 14:59:51;;;;;;;4.43;2.10;;;;;;;;;;4921762;29;20020;-83
2021/12/29 15:02:33;;;;;;;4.00;1.80;;;;;;;;;;4921087;29;20009;-81
2021/12/29 15:05:10;;;;;;;2.92;1.60;;;;;;;;;;4920112;29;20041;-83
2021/12/29 15:07:38;;;;;;;2.90;1.38;;;;;;;;;;4902396;29;20014;-83
2021/12/29 15:10:18;;;;;;;3.38;1.73;;;;;;;;;;4911135;29;20027;-84
2021/12/29 15:12:48;;;;;;;3.42;1.52;;;;;;;;;;4918217;29;20057;-82
2021/12/29 15:15:41;;;;;;;5.57;2.00;;;;;;;;;;4911156;29;20028;-82
2021/12/29 15:18:10;;;;;;;3.60;2.10;;;;;;;;;;4895866;29;20041;-81
2021/12/29 15:20:37;;;;;;;4.53;2.50;;;;;;;;;;4880811;29;20036;-82
2021/12/29 15:23:03;;;;;;;6.93;2.50;;;;;;;;;;4882413;29;20029;-82
2021/12/29 15:25:29;;;;;;;3.70;2.00;;;;;;;;;;4882737;29;20121;-81
2021/12/29 15:28:00;;;;;;;3.70;1.80;;;;;;;;;;4891930;29;20076;-82
2021/12/29 15:30:28;;;;;;;5.50;2.40;;;;;;;;;;4902586;29;20093;-82
2021/12/29 15:32:55;;;;;;;5.55;2.45;;;;;;;;;;4905893;29;20013;-83
2021/12/29 15:35:21;;;;;;;6.15;2.80;;;;;;;;;;4902815;29;20021;-82
2021/12/29 15:37:47;;;;;;;4.30;2.22;;;;;;;;;;4915544;29;20031;-83
2021/12/29 15:40:15;;;;;;;6.75;2.97;;;;;;;;;;4921909;29;20040;-83
2021/12/29 15:42:47;;;;;;;3.80;1.90;;;;;;;;;;4925180;29;20005;-84
2021/12/29 15:45:17;;;;;;;4.18;2.20;;;;;;;;;;4924258;29;20092;-83
2021/12/29 15:47:44;;;;;;;6.20;2.22;;;;;;;;;;4921489;29;20033;-82
2021/12/29 15:50:13;;;;;;;4.88;2.17;;;;;;;;;;4952845;23;20059;-83
2021/12/29 15:52:38;;;;;;;3.90;1.92;;;;;;;;;;4894756;29;20123;-82
2021/12/29 15:55:05;;;;;;;4.10;2.40;;;;;;;;;;4891640;29;20020;-83
2021/12/29 15:57:32;;;;;;;5.05;2.53;;;;;;;;;;4885487;29;20022;-84
2021/12/29 15:59:58;;;;;;;4.90;2.38;;;;;;;;;;4884211;29;20008;-82
2021/12/29 16:02:23;;;;;;;5.93;3.47;;;;;;;;;;4882201;29;20025;-83
2021/12/29 16:04:52;;;;;;;7.10;3.30;;;;;;;;;;4882600;29;20099;-83
2021/12/29 16:07:21;;;;;;;5.53;2.70;;;;;;;;;;4881889;29;20078;-83
2021/12/29 16:09:48;;;;;;;5.32;2.60;;;;;;;;;;4883416;29;20029;-83
2021/12/29 16:12:14;;;;;;;9.40;4.60;;;;;;;;;;4884387;29;20021;-83
2021/12/29 16:14:42;;;;;;;7.20;3.60;;;;;;;;;;4882497;29;20030;-83
2021/12/29 16:17:07;;;;;;;7.10;3.45;;;;;;;;;;4952610;23;20059;-82
2021/12/29 16:19:33;;;;;;;6.13;3.40;;;;;;;;;;4894085;29;20078;-82
2021/12/29 16:21:58;;;;;;;5.18;3.13;;;;;;;;;;4899986;29;20024;-82
2021/12/29 16:24:28;;;;;;;6.78;3.40;;;;;;;;;;4901901;29;20033;-83
2021/12/29 16:26:54;;;;;;;7.38;2.83;;;;;;;;;;4897158;29;20013;-82
2021/12/29 16:29:19;;;;;;;5.68;3.70;;;;;;;;;;4889385;29;20029;-82
2021/12/29 16:31:45;;;;;;;7.45;3.72;;;;;;;;;;4868316;29;20022;-82
2021/12/29 16:34:10;;;;;;;8.02;3.80;;;;;;;;;;4872285;29;20542;-82
2021/12/29 16:36:35;;;;;;;5.45;3.15;;;;;;;;;;4879726;29;20026;-82
2021/12/29 16:39:01;;;;;;;3.97;2.72;;;;;;;;;;4879758;29;20026;-82
2021/12/29 16:41:27;;;;;;;5.00;2.70;;;;;;;;;;4875967;29;20121;-82
2021/12/29 16:46:34;;;;;;;28.45;15.13;;;;;;;;;;5756028;23;20262;-84
2021/12/29 16:49:00;;;;;;;9.20;4.07;;;;;;;;;;4929627;23;20052;-82
2021/12/29 16:51:26;;;;;;;5.13;3.28;;;;;;;;;;4890250;29;20028;-82
2021/12/29 16:53:52;;;;;;;7.43;4.15;;;;;;;;;;4887173;29;20048;-81
2021/12/29 16:56:18;;;;;;;7.05;4.07;;;;;;;;;;4891368;29;20048;-81
2021/12/29 16:58:43;;;;;;;6.90;4.00;;;;;;;;;;4890419;29;20474;-81
2021/12/29 17:01:09;;;;;;;7.53;3.65;;;;;;;;;;4886628;29;20069;-81
2021/12/29 17:03:34;;;;;;;7.13;3.65;;;;;;;;;;4887207;29;20258;-80
2021/12/29 17:06:00;;;;;;;17.02;7.13;;;;;;;;;;4887558;29;20029;-80
2021/12/29 17:08:26;;;;;;;13.98;6.97;;;;;;;;;;4889054;29;20021;-81
2021/12/29 17:10:52;;;;;;;7.47;3.83;;;;;;;;;;4890900;29;20024;-81
2021/12/29 17:13:18;;;;;;;7.90;4.60;;;;;;;;;;4890806;29;20028;-81
2021/12/29 17:15:43;;;;;;;10.60;6.38;;;;;;;;;;4888293;29;20025;-81
2021/12/29 17:18:08;;;;;;;8.32;5.15;;;;;;;;;;4888061;29;20029;-81
2021/12/29 17:20:33;;;;;;;7.18;4.57;;;;;;;;;;4895020;29;20025;-81
2021/12/29 17:22:59;;;;;;;10.32;4.63;;;;;;;;;;4891884;29;20032;-82
2021/12/29 17:25:27;;;;;;;5.95;3.03;;;;;;;;;;4894905;29;20029;-81
2021/12/29 17:27:52;;;;;;;5.90;3.17;;;;;;;;;;4909497;29;20029;-82
2021/12/29 17:30:20;;;;;;;5.35;3.20;;;;;;;;;;4897804;29;20205;-82
2021/12/29 17:32:45;;;;;;;4.78;2.85;;;;;;;;;;4896232;29;20033;-82
2021/12/29 17:35:11;;;;;;;8.18;3.45;;;;;;;;;;4892307;29;20061;-81
2021/12/29 17:37:38;;;;;;;4.47;2.60;;;;;;;;;;4895622;29;20036;-82
2021/12/29 17:40:05;;;;;;;5.38;2.80;;;;;;;;;;4898693;29;20060;-82
2021/12/29 17:42:33;;;;;;;5.45;3.20;;;;;;;;;;4900474;29;20033;-83
2021/12/29 17:45:01;;;;;;;6.07;3.28;;;;;;;;;;4899857;29;20029;-82
2021/12/29 17:47:31;;;;;;;5.50;3.45;;;;;;;;;;4899909;29;20021;-82
2021/12/29 17:49:59;;;;;;;6.10;3.50;;;;;;;;;;4901247;29;20021;-83
2021/12/29 17:52:25;;;;;;;4.90;2.78;;;;;;;;;;4897928;29;20038;-83
2021/12/29 17:54:52;;;;;;;4.55;2.78;;;;;;;;;;4878816;29;20030;-82
2021/12/29 17:57:18;;;;;;;6.95;3.25;;;;;;;;;;4892130;29;20025;-81
2021/12/29 17:59:43;;;;;;;5.07;2.80;;;;;;;;;;4889373;29;20012;-81
2021/12/29 18:02:09;;;;;;;4.97;2.92;;;;;;;;;;4896222;29;20021;-82
2021/12/29 18:04:35;;;;;;;4.53;2.70;;;;;;;;;;4896978;29;20029;-82
2021/12/29 18:07:00;;;;;;;5.22;2.92;;;;;;;;;;4898174;29;20029;-82
2021/12/29 18:09:31;;;;;;;5.60;2.90;;;;;;;;;;4901061;29;20077;-82
2021/12/29 18:11:57;;;;;;;7.63;3.45;;;;;;;;;;4903834;29;20088;-82
2021/12/29 18:14:23;;;;;;;6.32;3.75;;;;;;;;;;4904030;29;20029;-83
2021/12/29 18:16:52;;;;;;;7.32;4.15;;;;;;;;;;4903471;29;20077;-82
2021/12/29 18:19:19;;;;;;;5.22;3.30;;;;;;;;;;4903991;29;20009;-83
2021/12/29 18:21:48;;;;;;;6.72;4.00;;;;;;;;;;4903199;29;20111;-83
2021/12/29 18:26:49;;;;;;;7.03;3.75;;;;;;;;;;4906983;23;20053;-81
2021/12/29 18:29:15;;;;;;;7.57;3.80;;;;;;;;;;5089992;23;20861;-83
2021/12/29 18:31:44;;;;;;;7.68;4.47;;;;;;;;;;5055519;23;20057;-82
2021/12/29 18:34:10;;;;;;;11.77;4.30;;;;;;;;;;4902988;29;20046;-85
2021/12/29 18:36:35;;;;;;;9.02;5.35;;;;;;;;;;4903372;29;20017;-83
2021/12/29 18:39:00;;;;;;;8.25;5.18;;;;;;;;;;4899947;29;20378;-79
2021/12/29 18:41:26;;;;;;;8.00;5.28;;;;;;;;;;4898812;29;20025;-82
2021/12/29 18:43:58;;;;;;;9.18;5.55;;;;;;;;;;4897034;29;20040;-82
2021/12/29 18:46:23;;;;;;;10.50;6.05;;;;;;;;;;4884670;29;20032;-85
2021/12/29 18:48:49;;;;;;;9.30;4.82;;;;;;;;;;4879889;29;20108;-89
2021/12/29 18:51:15;;;;;;;8.10;4.50;;;;;;;;;;4873589;29;20089;-90
2021/12/29 18:53:41;;;;;;;8.35;4.40;;;;;;;;;;4876205;29;20068;-88
2021/12/29 18:56:06;;;;;;;10.98;5.22;;;;;;;;;;4887299;29;20488;-85
2021/12/29 18:58:32;;;;;;;7.47;4.43;;;;;;;;;;4889348;29;20119;-86
2021/12/29 19:00:57;;;;;;;6.63;3.58;;;;;;;;;;4875058;29;20100;-90
2021/12/29 19:03:23;;;;;;;5.78;3.45;;;;;;;;;;4871342;29;20021;-88
2021/12/29 19:05:49;;;;;;;6.45;3.17;;;;;;;;;;4871014;29;20052;-88
2021/12/29 19:08:15;;;;;;;7.57;4.13;;;;;;;;;;4887511;29;20036;-87
2021/12/29 19:10:40;;;;;;;7.00;3.70;;;;;;;;;;4884378;29;20481;-88
2021/12/29 19:13:05;;;;;;;10.80;3.88;;;;;;;;;;4869721;29;20049;-85
2021/12/29 19:15:31;;;;;;;7.70;3.28;;;;;;;;;;4895476;29;20039;-88
2021/12/29 19:17:56;;;;;;;6.78;3.38;;;;;;;;;;4886906;29;20041;-88
2021/12/29 19:20:24;;;;;;;11.30;3.72;;;;;;;;;;4897502;29;20040;-84
2021/12/29 19:22:50;;;;;;;6.28;3.30;;;;;;;;;;4978338;23;20076;-84
2021/12/29 19:25:16;;;;;;;5.70;3.15;;;;;;;;;;4885992;29;20080;-87
2021/12/29 19:27:41;;;;;;;10.40;4.03;;;;;;;;;;4887185;29;20042;-88
2021/12/29 19:30:08;;;;;;;7.57;3.15;;;;;;;;;;4863007;29;20548;-86
2021/12/29 19:32:33;;;;;;;7.63;3.70;;;;;;;;;;4857823;29;20026;-88
2021/12/29 19:35:00;;;;;;;12.13;5.00;;;;;;;;;;4866250;29;20452;-85
2021/12/29 19:37:25;;;;;;;9.38;4.60;;;;;;;;;;4877238;29;20030;-86
2021/12/29 19:39:51;;;;;;;14.15;4.90;;;;;;;;;;4878548;29;20033;-83
2021/12/29 19:42:22;;;;;;;10.38;4.50;;;;;;;;;;4868606;29;20029;-84
2021/12/29 19:44:48;;;;;;;8.73;3.40;;;;;;;;;;4875659;29;20478;-83
2021/12/29 19:47:16;;;;;;;8.20;3.97;;;;;;;;;;4883046;29;20002;-84
2021/12/29 19:49:44;;;;;;;8.65;3.60;;;;;;;;;;4881862;29;20021;-89
2021/12/29 19:52:15;;;;;;;14.38;3.65;;;;;;;;;;4885660;29;20040;-87
2021/12/29 19:54:46;;;;;;;6.72;3.65;;;;;;;;;;4880246;29;20071;-86
2021/12/29 19:57:12;;;;;;;6.68;3.92;;;;;;;;;;4882565;29;20022;-86
2021/12/29 19:59:40;;;;;;;686.63;278.73;;;;;;;;;;4882723;29;20081;-85
2021/12/29 20:02:10;;;;;;;79.10;50.67;;;;;;;;;;4866989;29;20051;-88
2021/12/29 20:04:39;;;;;;;16.73;11.20;;;;;;;;;;4866978;29;20025;-83
2021/12/29 20:12:15;;;;;;;6.03;3.23;;;;;;;;;;5941204;23;20016;-81
2021/12/29 20:14:41;;;;;;;6.05;3.25;;;;;;;;;;4925238;29;20027;-84
2021/12/29 20:35:13;;;;;;;8.20;3.95;;;;;;;;;;5565509;23;20066;-84
2021/12/29 20:37:40;;;;;;;7.18;3.40;;;;;;;;;;4905557;29;20009;-83
2021/12/29 20:40:09;;;;;;;6.68;3.45;;;;;;;;;;5234670;23;20032;-86
2021/12/29 20:42:35;;;;;;;5.78;3.33;;;;;;;;;;5354454;23;20069;-87
2021/12/29 20:45:08;;;;;;;6.82;3.30;;;;;;;;;;5347363;23;21008;-88
2021/12/29 20:47:34;;;;;;;6.80;3.25;;;;;;;;;;4901104;29;20017;-82